Time;durP1;ratioP1;P1;durP2;ratioP2;P2;SDS_P1;SDS_P2;PMS_P1;PMS_P2;Temp;Humidity;BMP_temperature;BMP_pressure;BME280_temperature;BME280_humidity;BME280_pressure;Samples;Min_cycle;Max_cycle;Signal;HPM_P1;HPM_P2
2022/04/19 00:00:17;;;;;;;5.15;3.15;;;;;;;;;;1796048;80;20996;-78
2022/04/19 00:02:44;;;;;;;4.20;2.90;;;;;;;;;;1768500;79;21048;-78
2022/04/19 00:05:10;;;;;;;5.40;3.08;;;;;;;;;;1764203;80;21535;-78
2022/04/19 00:07:38;;;;;;;6.42;3.40;;;;;;;;;;1731625;82;21056;-77
2022/04/19 00:10:07;;;;;;;5.42;2.98;;;;;;;;;;1731771;82;21809;-77
2022/04/19 00:12:35;;;;;;;3.92;2.55;;;;;;;;;;1731467;82;21056;-78
2022/04/19 00:15:01;;;;;;;4.47;2.90;;;;;;;;;;1792299;80;21086;-78
2022/04/19 00:17:29;;;;;;;4.37;3.05;;;;;;;;;;1796097;80;21519;-78
2022/04/19 00:19:56;;;;;;;5.25;2.62;;;;;;;;;;1775995;79;21029;-78
2022/04/19 00:22:22;;;;;;;7.35;3.12;;;;;;;;;;1768842;80;21020;-77
2022/04/19 00:24:49;;;;;;;5.03;3.00;;;;;;;;;;1761892;81;20965;-76
2022/04/19 00:27:15;;;;;;;5.67;3.22;;;;;;;;;;1761966;81;21516;-77
2022/04/19 00:29:42;;;;;;;5.12;3.05;;;;;;;;;;1792987;80;21642;-76
2022/04/19 00:32:11;;;;;;;4.75;2.75;;;;;;;;;;1786219;80;21096;-77
2022/04/19 00:34:38;;;;;;;5.35;3.00;;;;;;;;;;1761961;80;21072;-78
2022/04/19 00:37:05;;;;;;;5.35;2.90;;;;;;;;;;1761881;81;21579;-78
2022/04/19 00:39:31;;;;;;;4.80;2.80;;;;;;;;;;1761833;81;21016;-78
2022/04/19 00:41:57;;;;;;;5.65;3.08;;;;;;;;;;1762693;80;21028;-78
2022/04/19 00:44:23;;;;;;;5.47;2.90;;;;;;;;;;1793377;80;21059;-78
2022/04/19 00:46:50;;;;;;;5.12;2.77;;;;;;;;;;1793827;80;21500;-78
2022/04/19 00:49:19;;;;;;;7.15;3.10;;;;;;;;;;1793877;80;20938;-78
2022/04/19 00:51:46;;;;;;;9.18;3.35;;;;;;;;;;1793688;80;20965;-78
2022/04/19 00:54:13;;;;;;;5.05;3.05;;;;;;;;;;1747043;81;21028;-77
2022/04/19 00:56:41;;;;;;;7.40;3.90;;;;;;;;;;1761250;81;21655;-77
2022/04/19 00:59:10;;;;;;;5.17;2.95;;;;;;;;;;1761427;81;21041;-78
2022/04/19 01:04:30;;;;;;;5.72;3.60;;;;;;;;;;1739458;80;21140;-76
2022/04/19 01:07:03;;;;;;;5.22;3.42;;;;;;;;;;1744594;82;21117;-76
2022/04/19 01:09:36;;;;;;;6.35;3.25;;;;;;;;;;1818447;79;21062;-76
2022/04/19 01:14:55;;;;;;;4.00;2.92;;;;;;;;;;1798568;80;21032;-76
2022/04/19 01:17:23;;;;;;;4.22;2.55;;;;;;;;;;1765635;80;21067;-76
2022/04/19 01:19:51;;;;;;;8.20;3.52;;;;;;;;;;1798623;80;21055;-76
2022/04/19 01:22:20;;;;;;;8.35;4.25;;;;;;;;;;1805071;79;21120;-76
2022/04/19 01:24:47;;;;;;;6.22;3.33;;;;;;;;;;1820871;79;21093;-76
2022/04/19 01:27:14;;;;;;;5.37;3.00;;;;;;;;;;1821041;79;21069;-76
2022/04/19 01:29:42;;;;;;;8.48;3.62;;;;;;;;;;1820963;79;21057;-76
2022/04/19 01:32:10;;;;;;;8.15;3.45;;;;;;;;;;1818067;79;21008;-76
2022/04/19 01:34:38;;;;;;;5.60;2.98;;;;;;;;;;1798124;80;21020;-76
2022/04/19 01:37:07;;;;;;;7.55;3.45;;;;;;;;;;1798383;80;21113;-75
2022/04/19 01:42:19;;;;;;;6.20;2.70;;;;;;;;;;1802613;79;21574;-75
2022/04/19 01:44:48;;;;;;;5.45;2.72;;;;;;;;;;1820050;79;21030;-76
2022/04/19 01:47:14;;;;;;;5.78;2.87;;;;;;;;;;1821097;79;20994;-76
2022/04/19 01:49:42;;;;;;;4.53;2.80;;;;;;;;;;1820844;79;21520;-76
2022/04/19 01:52:09;;;;;;;4.28;2.40;;;;;;;;;;1819467;79;21065;-77
2022/04/19 01:54:38;;;;;;;4.87;2.70;;;;;;;;;;1798542;80;21571;-76
2022/04/19 01:57:05;;;;;;;4.47;2.62;;;;;;;;;;1798730;80;21028;-76
2022/04/19 01:59:43;;;;;;;5.65;2.80;;;;;;;;;;1797539;80;21593;-76
2022/04/19 02:02:14;;;;;;;4.97;2.50;;;;;;;;;;1801287;79;21060;-76
2022/04/19 02:04:40;;;;;;;5.05;2.60;;;;;;;;;;1775003;79;21055;-76
2022/04/19 02:07:07;;;;;;;4.25;2.67;;;;;;;;;;1764675;80;21016;-76
2022/04/19 02:09:34;;;;;;;8.25;3.25;;;;;;;;;;1767930;81;21083;-76
2022/04/19 02:12:04;;;;;;;8.63;3.37;;;;;;;;;;1767953;81;21127;-76
2022/04/19 02:14:41;;;;;;;4.00;2.37;;;;;;;;;;1730664;80;21083;-76
2022/04/19 02:17:09;;;;;;;5.45;2.80;;;;;;;;;;1713165;83;21052;-76
2022/04/19 02:19:37;;;;;;;4.35;2.55;;;;;;;;;;1733336;82;21020;-76
2022/04/19 02:22:05;;;;;;;3.52;2.35;;;;;;;;;;1732975;82;21068;-76
2022/04/19 02:24:34;;;;;;;3.33;2.20;;;;;;;;;;1704074;84;21071;-76
2022/04/19 02:27:01;;;;;;;2.72;2.20;;;;;;;;;;1704158;84;21057;-76
2022/04/19 02:29:29;;;;;;;3.62;2.10;;;;;;;;;;1704093;84;21092;-76
2022/04/19 02:31:57;;;;;;;2.62;2.10;;;;;;;;;;1703839;84;21533;-76
2022/04/19 02:34:25;;;;;;;3.67;2.15;;;;;;;;;;1730629;83;21063;-77
2022/04/19 02:36:53;;;;;;;3.22;2.30;;;;;;;;;;1733379;83;21067;-76
2022/04/19 02:39:20;;;;;;;1.75;1.62;;;;;;;;;;1732973;83;21048;-76
2022/04/19 02:41:48;;;;;;;3.42;1.90;;;;;;;;;;1734071;83;21512;-76
2022/04/19 02:44:14;;;;;;;2.33;1.95;;;;;;;;;;1732975;83;21621;-76
2022/04/19 02:46:44;;;;;;;3.72;2.25;;;;;;;;;;1702568;84;21532;-76
2022/04/19 02:49:13;;;;;;;3.95;2.58;;;;;;;;;;1733149;83;21045;-77
2022/04/19 02:51:39;;;;;;;3.22;2.10;;;;;;;;;;1702632;84;21487;-77
2022/04/19 02:54:06;;;;;;;2.72;2.02;;;;;;;;;;1733110;83;21052;-77
2022/04/19 02:56:32;;;;;;;3.17;2.30;;;;;;;;;;1702570;84;21045;-77
2022/04/19 02:59:00;;;;;;;2.80;1.80;;;;;;;;;;1733746;83;21041;-77
2022/04/19 03:01:26;;;;;;;2.98;1.95;;;;;;;;;;1702664;84;21080;-77
2022/04/19 03:03:52;;;;;;;2.05;1.82;;;;;;;;;;1738850;81;21122;-76
2022/04/19 03:06:20;;;;;;;2.70;2.00;;;;;;;;;;1759169;81;21023;-80
2022/04/19 03:08:47;;;;;;;2.50;2.05;;;;;;;;;;1759360;81;20964;-77
2022/04/19 03:11:13;;;;;;;3.08;2.40;;;;;;;;;;1759650;81;21006;-77
2022/04/19 03:13:39;;;;;;;3.00;1.90;;;;;;;;;;1731911;83;20981;-77
2022/04/19 03:16:13;;;;;;;2.80;1.90;;;;;;;;;;1752528;81;21063;-77
2022/04/19 03:18:43;;;;;;;2.35;2.00;;;;;;;;;;1727493;82;21124;-77
2022/04/19 03:21:10;;;;;;;3.50;2.20;;;;;;;;;;1710561;83;21125;-77
2022/04/19 03:29:11;;;;;;;3.15;2.08;;;;;;;;;;1759331;81;21003;-75
2022/04/19 03:31:38;;;;;;;3.83;1.85;;;;;;;;;;1759237;81;20984;-75
2022/04/19 03:34:05;;;;;;;5.33;2.42;;;;;;;;;;1759233;81;21063;-77
2022/04/19 03:36:32;;;;;;;3.30;2.10;;;;;;;;;;1759229;81;21067;-76
2022/04/19 03:39:00;;;;;;;5.08;2.08;;;;;;;;;;1758964;81;21091;-76
2022/04/19 03:41:27;;;;;;;3.30;2.55;;;;;;;;;;1759111;81;22184;-76
2022/04/19 03:43:53;;;;;;;3.10;2.20;;;;;;;;;;1759271;81;20984;-76
2022/04/19 03:46:20;;;;;;;3.10;2.30;;;;;;;;;;1731785;83;21040;-76
2022/04/19 03:48:47;;;;;;;4.72;2.12;;;;;;;;;;1736305;81;21040;-76
2022/04/19 03:51:14;;;;;;;2.50;1.72;;;;;;;;;;1759711;81;21043;-76
2022/04/19 03:53:40;;;;;;;2.85;2.00;;;;;;;;;;1759826;81;21573;-76
2022/04/19 03:56:06;;;;;;;3.10;2.20;;;;;;;;;;1759703;81;21570;-77
2022/04/19 03:58:33;;;;;;;3.27;2.35;;;;;;;;;;1759716;81;20999;-77
2022/04/19 04:01:02;;;;;;;4.00;2.45;;;;;;;;;;1759507;81;21565;-78
2022/04/19 04:03:28;;;;;;;3.65;2.65;;;;;;;;;;1759642;80;21043;-78
2022/04/19 04:05:57;;;;;;;5.22;2.60;;;;;;;;;;1767312;81;21033;-77
2022/04/19 04:08:25;;;;;;;5.90;2.47;;;;;;;;;;1733668;83;21032;-77
2022/04/19 04:10:53;;;;;;;4.03;3.05;;;;;;;;;;1733692;83;21602;-78
2022/04/19 04:13:22;;;;;;;4.35;2.58;;;;;;;;;;1733758;83;21087;-78
2022/04/19 04:15:48;;;;;;;4.40;2.42;;;;;;;;;;1733980;83;21095;-78
2022/04/19 04:18:15;;;;;;;4.33;2.70;;;;;;;;;;1772280;81;21036;-78
2022/04/19 04:20:43;;;;;;;5.50;2.35;;;;;;;;;;1765983;81;21547;-76
2022/04/19 04:23:10;;;;;;;4.60;2.80;;;;;;;;;;1765223;81;21610;-76
2022/04/19 04:25:36;;;;;;;4.35;2.60;;;;;;;;;;1744377;81;21036;-78
2022/04/19 04:28:04;;;;;;;6.40;2.60;;;;;;;;;;1763904;81;21111;-78
2022/04/19 04:30:34;;;;;;;4.55;2.87;;;;;;;;;;1764593;81;21028;-78
2022/04/19 04:33:03;;;;;;;2.95;2.30;;;;;;;;;;1770449;81;21004;-78
2022/04/19 04:35:32;;;;;;;3.40;2.30;;;;;;;;;;1733138;83;21052;-79
2022/04/19 04:37:58;;;;;;;3.98;2.60;;;;;;;;;;1731415;81;21000;-78
2022/04/19 04:40:29;;;;;;;5.80;2.77;;;;;;;;;;1687476;84;21076;-78
2022/04/19 04:43:00;;;;;;;3.25;2.12;;;;;;;;;;1674373;86;21025;-76
2022/04/19 04:45:26;;;;;;;4.97;2.67;;;;;;;;;;1674636;86;21020;-78
2022/04/19 04:50:38;;;;;;;4.00;2.42;;;;;;;;;;1687269;84;21021;-77
2022/04/19 04:53:06;;;;;;;4.50;2.67;;;;;;;;;;1698088;84;21017;-77
2022/04/19 04:55:34;;;;;;;4.95;2.85;;;;;;;;;;1731828;83;21060;-77
2022/04/19 04:58:03;;;;;;;4.22;2.40;;;;;;;;;;1731884;83;21107;-77
2022/04/19 05:00:30;;;;;;;4.83;2.37;;;;;;;;;;1733622;82;21048;-77
2022/04/19 05:02:58;;;;;;;3.27;2.05;;;;;;;;;;1702587;83;21094;-77
2022/04/19 05:05:25;;;;;;;4.25;2.58;;;;;;;;;;1702115;84;21097;-77
2022/04/19 05:07:53;;;;;;;3.80;2.45;;;;;;;;;;1767944;79;21489;-77
2022/04/19 05:10:20;;;;;;;4.08;2.47;;;;;;;;;;1767641;80;21020;-78
2022/04/19 05:12:48;;;;;;;4.17;2.52;;;;;;;;;;1771946;81;21050;-78
2022/04/19 05:15:16;;;;;;;3.40;2.37;;;;;;;;;;1771566;81;20996;-77
2022/04/19 05:17:44;;;;;;;2.58;2.20;;;;;;;;;;1769996;80;21055;-77
2022/04/19 05:20:11;;;;;;;3.35;2.50;;;;;;;;;;1770688;80;21007;-78
2022/04/19 05:22:38;;;;;;;4.25;2.50;;;;;;;;;;1770681;80;21036;-78
2022/04/19 05:25:05;;;;;;;3.10;2.30;;;;;;;;;;1782132;80;21016;-77
2022/04/19 05:27:31;;;;;;;3.75;2.22;;;;;;;;;;1760311;81;21064;-78
2022/04/19 05:29:58;;;;;;;3.08;2.22;;;;;;;;;;1763885;80;21020;-79
2022/04/19 05:32:27;;;;;;;4.10;2.40;;;;;;;;;;1753184;80;21017;-78
2022/04/19 05:34:54;;;;;;;2.67;1.90;;;;;;;;;;1725674;83;21032;-79
2022/04/19 05:37:20;;;;;;;3.10;2.17;;;;;;;;;;1756224;81;20985;-69
2022/04/19 05:39:46;;;;;;;4.58;2.60;;;;;;;;;;1738914;81;20981;-79
2022/04/19 05:42:15;;;;;;;3.22;2.45;;;;;;;;;;1766543;81;21203;-79
2022/04/19 05:44:43;;;;;;;2.77;2.20;;;;;;;;;;1766287;81;21021;-79
2022/04/19 05:47:10;;;;;;;3.20;2.30;;;;;;;;;;1766557;81;21047;-79
2022/04/19 05:49:37;;;;;;;3.42;2.40;;;;;;;;;;1766567;81;20999;-79
2022/04/19 05:52:05;;;;;;;3.33;2.30;;;;;;;;;;1767015;81;21118;-78
2022/04/19 05:54:33;;;;;;;3.65;2.35;;;;;;;;;;1766639;81;21569;-79
2022/04/19 05:56:59;;;;;;;2.50;2.10;;;;;;;;;;1767146;81;21055;-78
2022/04/19 05:59:26;;;;;;;3.67;2.42;;;;;;;;;;1766639;81;21066;-78
2022/04/19 06:04:53;;;;;;;3.52;2.40;;;;;;;;;;1766887;81;22101;-79
2022/04/19 06:07:25;;;;;;;3.55;2.22;;;;;;;;;;1766771;81;21166;-78
2022/04/19 06:09:53;;;;;;;4.85;2.60;;;;;;;;;;1766836;81;21074;-77
2022/04/19 06:12:20;;;;;;;2.80;2.12;;;;;;;;;;1766827;81;21036;-77
2022/04/19 06:14:49;;;;;;;4.60;2.58;;;;;;;;;;1767042;80;21014;-77
2022/04/19 06:17:16;;;;;;;5.30;3.00;;;;;;;;;;1766747;81;21089;-77
2022/04/19 06:19:45;;;;;;;3.42;2.70;;;;;;;;;;1735007;81;21673;-78
2022/04/19 06:22:13;;;;;;;3.42;2.40;;;;;;;;;;1766984;81;21070;-78
2022/04/19 06:24:41;;;;;;;3.37;2.70;;;;;;;;;;1766065;81;21082;-78
2022/04/19 06:27:08;;;;;;;3.92;2.92;;;;;;;;;;1767129;81;21046;-78
2022/04/19 06:29:35;;;;;;;5.12;2.90;;;;;;;;;;1766877;81;21136;-79
2022/04/19 06:32:02;;;;;;;3.40;2.50;;;;;;;;;;1767144;81;21031;-78
2022/04/19 06:34:32;;;;;;;4.12;2.45;;;;;;;;;;1766450;81;21043;-78
2022/04/19 06:37:04;;;;;;;4.87;2.70;;;;;;;;;;1765673;81;21047;-77
2022/04/19 06:39:32;;;;;;;3.75;2.85;;;;;;;;;;1735052;81;21046;-79
2022/04/19 06:42:01;;;;;;;4.12;3.02;;;;;;;;;;1771133;79;20999;-73
2022/04/19 06:44:29;;;;;;;5.25;2.75;;;;;;;;;;1771204;79;21006;-76
2022/04/19 06:46:57;;;;;;;3.87;2.92;;;;;;;;;;1767928;78;21370;-73
2022/04/19 06:49:23;;;;;;;4.20;2.95;;;;;;;;;;1747177;80;21105;-76
2022/04/19 06:51:51;;;;;;;5.53;3.50;;;;;;;;;;1740963;81;21028;-77
2022/04/19 06:54:17;;;;;;;4.95;3.37;;;;;;;;;;1738554;80;21509;-77
2022/04/19 06:56:51;;;;;;;5.28;3.33;;;;;;;;;;1736322;83;21047;-79
2022/04/19 06:59:19;;;;;;;4.58;3.00;;;;;;;;;;1736635;83;21106;-79
2022/04/19 07:01:45;;;;;;;5.05;3.27;;;;;;;;;;1736283;81;21087;-79
2022/04/19 07:04:32;;;;;;;5.28;3.83;;;;;;;;;;1736566;82;21107;-78
2022/04/19 07:07:03;;;;;;;5.22;3.40;;;;;;;;;;1738903;82;21039;-79
2022/04/19 07:09:28;;;;;;;4.35;3.00;;;;;;;;;;1739589;82;21586;-79
2022/04/19 07:11:57;;;;;;;3.92;2.90;;;;;;;;;;1738988;82;21208;-79
2022/04/19 07:14:25;;;;;;;3.42;2.67;;;;;;;;;;1738887;82;21125;-79
2022/04/19 07:16:59;;;;;;;4.83;2.92;;;;;;;;;;1739575;82;21499;-76
2022/04/19 07:26:37;;;;;;;4.37;2.87;;;;;;;;;;1739287;82;21083;-76
2022/04/19 07:27:33;;;;;;;4.47;2.92;;;;;;;;;;1739433;82;21058;-77
2022/04/19 07:30:00;;;;;;;4.33;2.90;;;;;;;;;;1739141;82;21071;-77
2022/04/19 07:32:26;;;;;;;5.28;3.30;;;;;;;;;;1739543;82;21078;-76
2022/04/19 07:34:58;;;;;;;3.77;2.77;;;;;;;;;;1738603;82;21083;-77
2022/04/19 07:37:25;;;;;;;4.33;2.72;;;;;;;;;;1739334;82;21538;-78
2022/04/19 07:39:54;;;;;;;4.75;3.22;;;;;;;;;;1739518;82;21074;-77
2022/04/19 07:42:21;;;;;;;3.58;2.50;;;;;;;;;;1739285;82;21094;-77
2022/04/19 07:44:49;;;;;;;4.85;3.02;;;;;;;;;;1739382;82;21059;-77
2022/04/19 07:47:18;;;;;;;5.50;2.80;;;;;;;;;;1739350;82;21083;-77
2022/04/19 07:49:45;;;;;;;3.42;2.50;;;;;;;;;;1738830;82;21142;-76
2022/04/19 07:52:12;;;;;;;3.75;2.60;;;;;;;;;;1739509;82;21115;-78
2022/04/19 07:54:38;;;;;;;4.37;2.90;;;;;;;;;;1739053;82;21051;-76
2022/04/19 07:57:07;;;;;;;4.20;2.40;;;;;;;;;;1739245;82;21643;-76
2022/04/19 07:59:34;;;;;;;3.12;2.30;;;;;;;;;;1739052;82;21111;-78
2022/04/19 08:02:02;;;;;;;5.95;3.08;;;;;;;;;;1738923;81;21048;-76
2022/04/19 08:04:30;;;;;;;4.60;3.00;;;;;;;;;;1739565;82;21016;-77
2022/04/19 08:06:59;;;;;;;4.12;3.08;;;;;;;;;;1736446;82;21547;-77
2022/04/19 08:09:26;;;;;;;6.08;3.87;;;;;;;;;;1705841;83;21039;-77
2022/04/19 08:11:52;;;;;;;4.17;2.90;;;;;;;;;;1736380;83;21071;-78
2022/04/19 08:14:20;;;;;;;5.40;3.72;;;;;;;;;;1736435;83;21040;-77
2022/04/19 08:16:48;;;;;;;3.70;2.60;;;;;;;;;;1736472;83;21136;-77
2022/04/19 08:19:16;;;;;;;5.75;3.12;;;;;;;;;;1736312;83;21535;-77
2022/04/19 08:21:45;;;;;;;4.08;2.80;;;;;;;;;;1736424;83;21059;-78
2022/04/19 08:24:13;;;;;;;4.78;2.92;;;;;;;;;;1736482;83;21115;-77
2022/04/19 08:26:41;;;;;;;3.67;2.47;;;;;;;;;;1736297;83;21663;-78
2022/04/19 08:29:08;;;;;;;4.42;2.77;;;;;;;;;;1736574;83;21078;-78
2022/04/19 08:31:34;;;;;;;4.37;3.12;;;;;;;;;;1736331;83;21114;-77
2022/04/19 08:34:01;;;;;;;5.20;2.92;;;;;;;;;;1752325;81;21538;-68
2022/04/19 08:36:29;;;;;;;3.42;2.50;;;;;;;;;;1756483;81;21115;-71
2022/04/19 08:38:54;;;;;;;4.28;2.92;;;;;;;;;;1752192;81;21002;-72
2022/04/19 08:41:21;;;;;;;3.67;2.60;;;;;;;;;;1761161;81;21072;-72
2022/04/19 08:43:47;;;;;;;3.85;2.40;;;;;;;;;;1738886;82;21163;-73
2022/04/19 08:46:17;;;;;;;5.35;2.92;;;;;;;;;;1785572;80;21106;-72
2022/04/19 08:48:41;;;;;;;4.90;3.00;;;;;;;;;;1758506;81;21072;-72
2022/04/19 08:51:08;;;;;;;5.95;3.17;;;;;;;;;;1755049;81;21048;-72
2022/04/19 08:59:05;;;;;;;3.52;2.80;;;;;;;;;;1766445;79;21099;-72
2022/04/19 09:01:31;;;;;;;4.33;2.75;;;;;;;;;;1772249;80;21111;-72
2022/04/19 09:03:57;;;;;;;4.50;2.60;;;;;;;;;;1772518;81;21024;-72
2022/04/19 09:06:28;;;;;;;5.40;3.20;;;;;;;;;;1772357;81;21047;-72
2022/04/19 09:09:09;;;;;;;3.98;2.77;;;;;;;;;;1747934;81;21051;-72
2022/04/19 09:11:37;;;;;;;3.83;2.40;;;;;;;;;;1763856;81;21013;-73
2022/04/19 09:14:04;;;;;;;4.90;2.70;;;;;;;;;;1762767;81;21487;-73
2022/04/19 09:16:32;;;;;;;3.65;2.45;;;;;;;;;;1755567;81;21145;-73
2022/04/19 09:18:58;;;;;;;4.15;2.70;;;;;;;;;;1731972;83;21609;-74
2022/04/19 09:21:37;;;;;;;2.75;2.30;;;;;;;;;;1764979;81;21075;-74
2022/04/19 09:24:17;;;;;;;4.30;2.65;;;;;;;;;;1765251;81;21083;-73
2022/04/19 09:26:45;;;;;;;4.45;2.58;;;;;;;;;;1764847;81;21123;-72
2022/04/19 09:29:24;;;;;;;3.65;2.70;;;;;;;;;;1764938;80;21020;-72
2022/04/19 09:31:52;;;;;;;3.35;2.40;;;;;;;;;;1764941;81;21107;-73
2022/04/19 09:34:27;;;;;;;3.75;2.30;;;;;;;;;;1752683;81;21066;-72
2022/04/19 09:37:06;;;;;;;3.72;2.58;;;;;;;;;;1734817;83;20996;-72
2022/04/19 09:39:35;;;;;;;4.15;2.70;;;;;;;;;;1750051;81;21092;-73
2022/04/19 09:42:05;;;;;;;3.90;2.42;;;;;;;;;;1765931;81;21062;-74
2022/04/19 09:44:38;;;;;;;3.83;2.35;;;;;;;;;;1747264;81;21060;-74
2022/04/19 09:47:07;;;;;;;3.95;2.87;;;;;;;;;;1740938;82;21091;-72
2022/04/19 09:49:41;;;;;;;3.30;2.55;;;;;;;;;;1728390;82;21020;-71
2022/04/19 09:52:07;;;;;;;3.98;2.60;;;;;;;;;;1728500;82;21037;-73
2022/04/19 09:54:37;;;;;;;3.40;2.40;;;;;;;;;;1731424;82;21161;-72
2022/04/19 09:57:06;;;;;;;3.92;2.22;;;;;;;;;;1740984;82;21095;-72
2022/04/19 09:59:35;;;;;;;2.98;2.33;;;;;;;;;;1719714;83;21592;-72
2022/04/19 10:09:58;;;;;;;4.30;2.75;;;;;;;;;;1692552;84;21047;-73
2022/04/19 10:12:24;;;;;;;4.03;2.30;;;;;;;;;;1679744;85;21060;-72
2022/04/19 10:14:52;;;;;;;2.83;1.95;;;;;;;;;;1679128;84;21071;-72
2022/04/19 10:17:18;;;;;;;3.12;2.30;;;;;;;;;;1704463;84;21079;-72
2022/04/19 10:19:46;;;;;;;3.47;2.60;;;;;;;;;;1697449;84;21100;-74
2022/04/19 10:22:12;;;;;;;2.98;1.85;;;;;;;;;;1720806;82;21068;-73
2022/04/19 10:24:43;;;;;;;2.40;1.90;;;;;;;;;;1708601;84;21531;-73
2022/04/19 10:27:13;;;;;;;2.95;2.10;;;;;;;;;;1707920;84;21511;-73
2022/04/19 10:29:40;;;;;;;3.22;2.50;;;;;;;;;;1703974;84;22245;-74
2022/04/19 10:32:08;;;;;;;4.53;3.08;;;;;;;;;;1678304;84;21040;-73
2022/04/19 10:34:37;;;;;;;3.30;2.40;;;;;;;;;;1704047;84;22161;-74
2022/04/19 10:37:20;;;;;;;2.90;2.33;;;;;;;;;;1702368;84;21079;-73
2022/04/19 10:39:48;;;;;;;3.45;2.37;;;;;;;;;;1704155;84;21139;-72
2022/04/19 10:42:28;;;;;;;4.50;2.42;;;;;;;;;;1695146;84;21064;-74
2022/04/19 10:44:56;;;;;;;2.92;2.22;;;;;;;;;;1708325;84;21154;-74
2022/04/19 10:47:23;;;;;;;3.47;2.50;;;;;;;;;;1707209;84;21110;-74
2022/04/19 10:49:59;;;;;;;3.58;2.40;;;;;;;;;;1708086;84;21563;-74
2022/04/19 10:52:38;;;;;;;4.42;2.87;;;;;;;;;;1714195;82;21060;-74
2022/04/19 10:55:08;;;;;;;3.37;2.30;;;;;;;;;;1723157;83;21056;-73
2022/04/19 11:00:30;;;;;;;3.85;1.98;;;;;;;;;;1694393;84;21072;-72
2022/04/19 11:02:55;;;;;;;5.25;2.70;;;;;;;;;;1702336;83;21064;-72
2022/04/19 11:05:41;;;;;;;2.62;2.10;;;;;;;;;;1723086;83;21020;-73
2022/04/19 11:08:24;;;;;;;3.27;1.92;;;;;;;;;;1678060;85;21028;-75
2022/04/19 11:10:54;;;;;;;3.25;2.10;;;;;;;;;;1705441;84;21040;-74
2022/04/19 11:13:20;;;;;;;2.98;2.05;;;;;;;;;;1705574;84;21083;-73
2022/04/19 11:16:08;;;;;;;3.72;2.45;;;;;;;;;;1705936;84;21587;-72
2022/04/19 11:18:34;;;;;;;2.35;1.80;;;;;;;;;;1706016;84;20997;-72
2022/04/19 11:21:04;;;;;;;2.83;2.00;;;;;;;;;;1702304;84;21002;-73
2022/04/19 11:23:47;;;;;;;2.52;2.00;;;;;;;;;;1709520;83;21046;-74
2022/04/19 11:26:33;;;;;;;3.12;2.17;;;;;;;;;;1710989;83;21134;-73
2022/04/19 11:29:12;;;;;;;2.52;1.90;;;;;;;;;;1724540;83;21131;-73
2022/04/19 11:31:45;;;;;;;3.90;2.37;;;;;;;;;;1698384;84;21342;-73
2022/04/19 11:34:12;;;;;;;5.62;2.70;;;;;;;;;;1711046;83;21056;-74
2022/04/19 11:36:38;;;;;;;5.65;3.00;;;;;;;;;;1726977;83;21072;-74
2022/04/19 11:39:05;;;;;;;6.10;3.47;;;;;;;;;;1727378;83;21104;-74
2022/04/19 11:47:02;;;;;;;2.72;1.92;;;;;;;;;;1725908;82;21037;-73
2022/04/19 11:49:30;;;;;;;3.95;2.17;;;;;;;;;;1715980;83;21504;-73
2022/04/19 11:51:59;;;;;;;2.25;1.87;;;;;;;;;;1692657;85;21552;-73
2022/04/19 11:54:26;;;;;;;2.95;2.10;;;;;;;;;;1692773;84;20996;-73
2022/04/19 11:59:40;;;;;;;2.05;1.60;;;;;;;;;;1801993;79;22906;-74
2022/04/19 12:02:13;;;;;;;3.85;1.90;;;;;;;;;;1735713;81;21599;-74
2022/04/19 12:04:52;;;;;;;2.77;2.00;;;;;;;;;;1724370;83;21556;-73
2022/04/19 12:07:19;;;;;;;2.80;1.95;;;;;;;;;;1723217;83;21080;-73
2022/04/19 12:09:47;;;;;;;2.75;1.92;;;;;;;;;;1727229;81;20983;-73
2022/04/19 12:12:13;;;;;;;2.70;2.10;;;;;;;;;;1749453;81;21023;-73
2022/04/19 12:14:40;;;;;;;1.92;1.57;;;;;;;;;;1734315;81;21055;-73
2022/04/19 12:17:06;;;;;;;4.15;2.00;;;;;;;;;;1728873;83;21496;-73
2022/04/19 12:19:40;;;;;;;4.70;2.60;;;;;;;;;;1736350;81;21000;-73
2022/04/19 12:22:16;;;;;;;4.60;2.58;;;;;;;;;;1753234;81;21446;-73
2022/04/19 12:24:54;;;;;;;3.15;2.08;;;;;;;;;;1745300;82;21141;-73
2022/04/19 12:27:25;;;;;;;3.42;2.20;;;;;;;;;;1736129;81;21035;-73
2022/04/19 12:29:59;;;;;;;3.10;1.90;;;;;;;;;;1745305;82;20992;-73
2022/04/19 12:32:25;;;;;;;;;;;;;;;;;;1734941;81;21491;-72
2022/04/19 12:34:54;;;;;;;4.10;2.12;;;;;;;;;;1748716;81;20143;-73
2022/04/19 12:37:21;;;;;;;2.83;1.65;;;;;;;;;;1737918;81;21587;-73
2022/04/19 12:39:58;;;;;;;3.22;1.95;;;;;;;;;;1730050;83;21025;-73
2022/04/19 12:42:24;;;;;;;3.45;2.25;;;;;;;;;;1729978;83;21566;-73
2022/04/19 12:45:02;;;;;;;2.72;1.95;;;;;;;;;;1729747;83;21072;-73
2022/04/19 12:47:30;;;;;;;3.20;1.70;;;;;;;;;;1744216;81;21071;-73
2022/04/19 12:49:58;;;;;;;2.90;2.20;;;;;;;;;;1748447;81;21060;-72
2022/04/19 12:52:31;;;;;;;3.47;2.10;;;;;;;;;;1746789;81;21000;-72
2022/04/19 12:55:00;;;;;;;2.45;1.90;;;;;;;;;;1730892;81;21010;-72
2022/04/19 12:57:29;;;;;;;2.65;1.80;;;;;;;;;;1721759;83;21059;-72
2022/04/19 12:59:57;;;;;;;2.72;2.05;;;;;;;;;;1721872;82;21109;-73
2022/04/19 13:02:27;;;;;;;2.45;1.80;;;;;;;;;;1693564;83;21219;-73
2022/04/19 13:04:54;;;;;;;2.90;1.90;;;;;;;;;;1693784;85;21049;-73
2022/04/19 13:12:16;;;;;;;2.45;1.90;;;;;;;;;;1741414;82;21671;-73
2022/04/19 13:12:53;;;;;;;3.60;2.00;;;;;;;;;;1744381;82;21322;-74
2022/04/19 13:15:22;;;;;;;4.78;2.42;;;;;;;;;;1752372;82;21036;-73
2022/04/19 13:17:51;;;;;;;3.35;2.35;;;;;;;;;;1727098;82;21101;-73
2022/04/19 13:20:17;;;;;;;2.75;1.95;;;;;;;;;;1727866;82;21048;-73
2022/04/19 13:22:45;;;;;;;3.83;2.60;;;;;;;;;;1734991;82;21087;-73
2022/04/19 13:25:12;;;;;;;2.35;1.75;;;;;;;;;;1735082;83;21622;-73
2022/04/19 13:27:38;;;;;;;2.25;2.00;;;;;;;;;;1735072;83;21527;-74
2022/04/19 13:30:05;;;;;;;2.55;1.80;;;;;;;;;;1735443;82;21647;-73
2022/04/19 13:32:32;;;;;;;4.40;2.40;;;;;;;;;;1735300;82;21072;-73
2022/04/19 13:34:58;;;;;;;3.83;2.52;;;;;;;;;;1735130;83;21043;-73
2022/04/19 13:40:10;;;;;;;6.75;3.27;;;;;;;;;;1737714;82;21001;-73
2022/04/19 13:42:39;;;;;;;2.90;2.20;;;;;;;;;;1730649;82;21021;-73
2022/04/19 13:45:05;;;;;;;3.87;2.27;;;;;;;;;;1722252;83;21015;-73
2022/04/19 13:47:31;;;;;;;2.77;2.10;;;;;;;;;;1722196;82;21015;-75
2022/04/19 13:50:11;;;;;;;4.67;2.95;;;;;;;;;;1732386;82;21035;-73
2022/04/19 13:52:38;;;;;;;7.05;3.08;;;;;;;;;;1735160;82;21052;-74
2022/04/19 13:55:06;;;;;;;5.40;2.60;;;;;;;;;;1731791;82;21500;-74
2022/04/19 13:57:32;;;;;;;6.03;2.60;;;;;;;;;;1734874;83;21036;-74
2022/04/19 13:59:59;;;;;;;6.25;2.87;;;;;;;;;;1751037;81;21059;-74
2022/04/19 14:02:25;;;;;;;7.03;3.25;;;;;;;;;;1757128;80;21028;-74
2022/04/19 14:04:53;;;;;;;4.00;2.52;;;;;;;;;;1745785;81;21637;-74
2022/04/19 14:07:27;;;;;;;3.25;2.12;;;;;;;;;;1725440;82;21042;-74
2022/04/19 14:09:51;;;;;;;2.95;2.17;;;;;;;;;;1745276;82;21036;-74
2022/04/19 14:12:17;;;;;;;3.47;2.45;;;;;;;;;;1745747;81;21040;-74
2022/04/19 14:14:43;;;;;;;3.47;2.12;;;;;;;;;;1751100;82;21090;-74
2022/04/19 14:17:11;;;;;;;5.17;2.50;;;;;;;;;;1755682;82;21051;-74
2022/04/19 14:19:39;;;;;;;6.72;2.47;;;;;;;;;;1752713;81;21111;-74
2022/04/19 14:22:07;;;;;;;3.05;1.98;;;;;;;;;;1734888;82;21008;-74
2022/04/19 14:24:33;;;;;;;4.60;2.50;;;;;;;;;;1722400;82;21032;-74
2022/04/19 14:27:00;;;;;;;6.30;2.70;;;;;;;;;;1723428;82;21541;-74
2022/04/19 14:34:56;;;;;;;6.53;3.67;;;;;;;;;;1724739;83;21015;-72
2022/04/19 14:37:22;;;;;;;13.55;7.37;;;;;;;;;;1724337;83;21066;-72
2022/04/19 14:39:48;;;;;;;7.17;3.72;;;;;;;;;;1724797;82;21027;-73
2022/04/19 14:42:15;;;;;;;6.47;2.58;;;;;;;;;;1712394;82;21122;-73
2022/04/19 14:44:41;;;;;;;11.83;4.17;;;;;;;;;;1676458;85;21042;-73
2022/04/19 14:47:07;;;;;;;4.47;2.45;;;;;;;;;;1659487;85;21112;-73
2022/04/19 14:49:33;;;;;;;17.07;5.55;;;;;;;;;;1672997;85;21078;-73
2022/04/19 14:52:14;;;;;;;11.38;5.33;;;;;;;;;;1689630;85;21017;-73
2022/04/19 14:54:41;;;;;;;8.20;2.90;;;;;;;;;;1677961;85;21046;-73
2022/04/19 14:57:07;;;;;;;12.88;5.37;;;;;;;;;;1673323;86;21626;-73
2022/04/19 14:59:33;;;;;;;6.75;3.40;;;;;;;;;;1741130;82;21511;-73
2022/04/19 15:01:59;;;;;;;8.45;3.70;;;;;;;;;;1728127;81;21556;-73
2022/04/19 15:04:27;;;;;;;8.45;3.72;;;;;;;;;;1736774;82;20997;-73
2022/04/19 15:06:53;;;;;;;7.50;3.58;;;;;;;;;;1740588;81;20988;-73
2022/04/19 15:09:19;;;;;;;15.28;6.72;;;;;;;;;;1710706;83;21037;-73
2022/04/19 15:11:46;;;;;;;11.22;4.47;;;;;;;;;;1733327;82;21112;-73
2022/04/19 15:14:12;;;;;;;5.40;2.40;;;;;;;;;;1710894;84;21049;-74
2022/04/19 15:16:39;;;;;;;6.08;3.58;;;;;;;;;;1713378;82;21015;-74
2022/04/19 15:19:07;;;;;;;5.72;2.60;;;;;;;;;;1710013;83;21674;-74
2022/04/19 15:21:34;;;;;;;3.40;2.20;;;;;;;;;;1709350;83;22292;-73
2022/04/19 15:24:02;;;;;;;3.22;2.20;;;;;;;;;;1716435;82;21120;-73
2022/04/19 15:26:28;;;;;;;3.80;2.30;;;;;;;;;;1715808;83;21086;-73
2022/04/19 15:28:56;;;;;;;4.55;2.50;;;;;;;;;;1716470;83;21079;-74
2022/04/19 15:31:22;;;;;;;4.30;2.50;;;;;;;;;;1711248;83;21654;-74
2022/04/19 15:33:49;;;;;;;3.92;2.47;;;;;;;;;;1708263;84;21132;-74
2022/04/19 15:36:16;;;;;;;3.42;2.00;;;;;;;;;;1708566;84;21549;-74
2022/04/19 15:38:42;;;;;;;2.35;1.72;;;;;;;;;;1708477;84;21100;-74
2022/04/19 15:41:09;;;;;;;2.72;1.90;;;;;;;;;;1708335;84;21073;-74
2022/04/19 15:43:37;;;;;;;2.80;1.87;;;;;;;;;;1714029;83;21046;-73
2022/04/19 15:46:03;;;;;;;2.65;1.80;;;;;;;;;;1716425;83;21109;-73
2022/04/19 15:48:31;;;;;;;2.08;1.57;;;;;;;;;;1715623;83;21115;-74
2022/04/19 15:51:00;;;;;;;3.25;2.10;;;;;;;;;;1715770;83;21157;-73